createdAt,value
2018-08-10T00:01:08.730Z,57.67
2018-08-10T00:03:40.405Z,58.29
2018-08-10T00:06:12.204Z,58.12
2018-08-10T00:08:44.404Z,58.26
2018-08-10T00:11:14.703Z,58.64
2018-08-10T00:13:45.802Z,58.92
2018-08-10T00:16:20.642Z,58.08
2018-08-10T00:18:51.114Z,58.40
2018-08-10T00:21:21.381Z,58.47
2018-08-10T00:23:51.492Z,58.79
2018-08-10T00:26:22.902Z,58.38
2018-08-10T00:28:54.377Z,57.77
2018-08-10T00:31:25.484Z,57.82
2018-08-10T00:33:57.176Z,57.68
2018-08-10T00:36:28.961Z,58.19
2018-08-10T00:39:00.446Z,58.32
2018-08-10T00:41:30.993Z,58.37
2018-08-10T00:44:12.404Z,58.62
2018-08-10T00:46:43.848Z,58.77
2018-08-10T00:49:14.209Z,58.60
2018-08-10T00:51:44.682Z,58.30
2018-08-10T00:54:14.864Z,59.13
2018-08-10T00:56:46.871Z,58.37
2018-08-10T00:59:18.187Z,59.08
2018-08-10T01:01:48.622Z,58.89
2018-08-10T01:04:19.171Z,58.74
2018-08-10T01:06:51.659Z,57.99
2018-08-10T01:09:24.225Z,58.06
2018-08-10T01:11:55.876Z,58.34
2018-08-10T01:14:26.919Z,58.78
2018-08-10T01:16:57.571Z,59.20
2018-08-10T01:19:28.510Z,58.11
2018-08-10T01:22:00.012Z,58.72
2018-08-10T01:24:31.331Z,58.96
2018-08-10T01:27:01.451Z,59.01
2018-08-10T01:29:32.367Z,58.66
2018-08-10T01:32:03.123Z,59.43
2018-08-10T01:34:34.368Z,59.68
2018-08-10T01:37:05.365Z,58.96
2018-08-10T01:39:36.150Z,59.26
2018-08-10T01:42:07.976Z,59.67
2018-08-10T01:44:38.350Z,59.97
2018-08-10T01:47:10.525Z,60.40
2018-08-10T01:49:40.897Z,60.26
2018-08-10T01:52:11.021Z,59.86
2018-08-10T01:54:41.335Z,60.54
2018-08-10T01:57:11.525Z,60.56
2018-08-10T01:59:42.774Z,59.50
2018-08-10T02:02:13.609Z,59.77
2018-08-10T02:04:44.319Z,61.77
2018-08-10T02:07:15.245Z,61.14
2018-08-10T02:09:45.589Z,62.02
2018-08-10T02:12:17.233Z,61.98
2018-08-10T02:14:48.388Z,61.80
2018-08-10T02:17:19.842Z,62.00
2018-08-10T02:19:50.601Z,62.37
2018-08-10T02:22:21.731Z,61.86
2018-08-10T02:24:52.963Z,61.57
2018-08-10T02:27:23.605Z,61.08
2018-08-10T02:29:55.045Z,61.66
2018-08-10T02:32:25.611Z,60.53
2018-08-10T02:34:56.098Z,60.64
2018-08-10T02:37:27.501Z,60.76
2018-08-10T02:39:58.214Z,61.06
2018-08-10T02:42:28.802Z,60.34
2018-08-10T02:44:59.200Z,60.96
2018-08-10T02:47:30.045Z,61.18
2018-08-10T02:50:00.667Z,61.55
2018-08-10T02:52:31.668Z,60.72
2018-08-10T02:55:01.802Z,61.20
2018-08-10T02:57:31.980Z,60.98
2018-08-10T03:00:02.719Z,61.82
2018-08-10T03:02:33.320Z,62.34
2018-08-10T03:05:05.208Z,61.83
2018-08-10T03:07:36.826Z,60.86
2018-08-10T03:10:08.294Z,60.31
2018-08-10T03:12:39.350Z,60.08
2018-08-10T03:15:13.264Z,60.21
2018-08-10T03:17:44.677Z,60.46
2018-08-10T03:20:15.505Z,60.50
2018-08-10T03:22:45.664Z,60.57
2018-08-10T03:25:17.459Z,60.50
2018-08-10T03:27:55.653Z,60.94
2018-08-10T03:30:25.734Z,60.76
2018-08-10T03:32:57.871Z,61.17
2018-08-10T03:35:30.562Z,61.20
2018-08-10T03:38:01.192Z,60.59
2018-08-10T03:40:32.260Z,60.86
2018-08-10T03:43:03.184Z,61.40
2018-08-10T03:45:34.004Z,61.03
2018-08-10T03:48:05.005Z,60.86
2018-08-10T03:50:36.494Z,59.97
2018-08-10T03:53:08.299Z,60.71
2018-08-10T03:55:38.884Z,60.26
2018-08-10T03:58:09.039Z,62.32
2018-08-10T04:00:39.731Z,62.68
2018-08-10T04:03:10.823Z,62.23
2018-08-10T04:05:41.253Z,63.23
2018-08-10T04:08:12.675Z,63.44
2018-08-10T04:10:44.888Z,62.77
2018-08-10T04:13:15.556Z,63.50
2018-08-10T04:15:45.686Z,63.48
2018-08-10T04:18:17.575Z,63.01
2018-08-10T04:20:48.947Z,63.69
2018-08-10T04:23:20.579Z,64.06
2018-08-10T04:25:52.195Z,64.04
2018-08-10T04:28:22.309Z,64.42
2018-08-10T04:30:52.425Z,64.88
2018-08-10T04:33:23.249Z,65.70
2018-08-10T04:35:54.247Z,66.14
2018-08-10T04:38:25.637Z,65.81
2018-08-10T04:40:56.593Z,65.95
2018-08-10T04:43:26.880Z,65.82
2018-08-10T04:45:57.305Z,65.77
2018-08-10T04:48:28.025Z,65.36
2018-08-10T04:50:58.381Z,65.26
2018-08-10T04:53:29.487Z,64.78
2018-08-10T04:56:00.347Z,64.35
2018-08-10T04:58:32.152Z,63.90
2018-08-10T05:01:04.603Z,63.92
2018-08-10T05:03:36.462Z,64.10
2018-08-10T05:06:06.690Z,64.14
2018-08-10T05:08:37.813Z,64.13
2018-08-10T05:11:08.408Z,63.87
2018-08-10T05:13:38.553Z,63.22
2018-08-10T05:16:09.521Z,62.95
2018-08-10T05:18:40.995Z,61.95
2018-08-10T05:21:13.607Z,61.73
2018-08-10T05:23:44.905Z,61.78
2018-08-10T05:26:16.630Z,61.93
2018-08-10T05:28:47.197Z,61.03
2018-08-10T05:31:17.903Z,60.73
2018-08-10T05:33:48.602Z,60.12
2018-08-10T05:36:19.647Z,59.71
2018-08-10T05:38:50.258Z,59.16
2018-08-10T05:41:21.537Z,58.70
2018-08-10T05:43:51.775Z,57.90
2018-08-10T05:46:22.157Z,56.17
2018-08-10T05:48:54.001Z,55.37
2018-08-10T05:51:25.128Z,54.10
2018-08-10T05:53:56.227Z,53.85
2018-08-10T05:56:26.486Z,52.23
2018-08-10T05:58:57.188Z,51.82
2018-08-10T06:01:27.495Z,52.27
2018-08-10T06:03:58.041Z,55.25
2018-08-10T06:06:28.504Z,55.40
2018-08-10T06:08:59.009Z,56.07
2018-08-10T06:11:29.197Z,56.63
2018-08-10T06:13:59.334Z,56.30
2018-08-10T06:16:30.577Z,57.09
2018-08-10T06:19:02.080Z,56.74
2018-08-10T06:21:32.971Z,54.89
2018-08-10T06:24:03.425Z,55.57
2018-08-10T06:26:33.834Z,56.46
2018-08-10T06:29:04.756Z,56.23
2018-08-10T06:31:35.278Z,56.63
2018-08-10T06:34:06.724Z,56.59
2018-08-10T06:36:38.083Z,56.03
2018-08-10T06:39:10.610Z,55.94
2018-08-10T06:41:41.735Z,56.65
2018-08-10T06:44:12.874Z,55.89
2018-08-10T06:46:43.884Z,56.99
2018-08-10T06:49:17.022Z,56.84
2018-08-10T06:51:48.504Z,56.81
2018-08-10T06:54:20.698Z,57.38
2018-08-10T06:56:51.606Z,57.35
2018-08-10T06:59:21.842Z,55.99
2018-08-10T07:01:52.206Z,55.86
2018-08-10T07:04:22.399Z,56.03
2018-08-10T07:06:53.404Z,56.01
2018-08-10T07:09:24.703Z,56.47
2018-08-10T07:11:57.926Z,56.72
2018-08-10T07:14:29.086Z,55.73
2018-08-10T07:16:59.646Z,55.28
2018-08-10T07:19:29.958Z,56.37
2018-08-10T07:22:01.176Z,55.78
2018-08-10T07:24:32.396Z,56.72
2018-08-10T07:27:02.714Z,56.43
2018-08-10T07:29:34.181Z,56.02
2018-08-10T07:32:04.636Z,55.78
2018-08-10T07:34:35.050Z,55.70
2018-08-10T07:37:06.462Z,54.72
2018-08-10T07:39:38.237Z,53.93
2018-08-10T07:42:08.744Z,53.80
2018-08-10T07:44:39.839Z,52.91
2018-08-10T07:47:11.117Z,52.45
2018-08-10T07:49:44.314Z,52.26
2018-08-10T07:52:15.587Z,50.72
2018-08-10T07:54:45.746Z,50.17
2018-08-10T07:57:16.906Z,48.89
2018-08-10T07:59:52.100Z,48.68
2018-08-10T08:02:23.418Z,48.54
2018-08-10T08:04:53.550Z,49.01
2018-08-10T08:07:23.905Z,49.80
2018-08-10T08:09:54.790Z,49.81
2018-08-10T08:12:25.729Z,49.56
2018-08-10T08:14:55.978Z,48.38
2018-08-10T08:17:26.613Z,46.40
2018-08-10T08:19:57.090Z,45.66
2018-08-10T08:22:29.368Z,44.59
2018-08-10T08:24:59.743Z,45.48
2018-08-10T08:27:29.930Z,46.54
2018-08-10T08:30:00.157Z,47.01
2018-08-10T08:32:31.158Z,45.89
2018-08-10T08:35:03.098Z,45.67
2018-08-10T08:37:33.866Z,45.04
2018-08-10T08:40:23.526Z,44.65
2018-08-10T08:42:54.542Z,43.62
2018-08-10T08:45:37.702Z,44.26
2018-08-10T08:48:08.396Z,42.64
2018-08-10T08:50:40.742Z,39.14
2018-08-10T08:53:11.431Z,38.00
2018-08-10T08:55:47.490Z,37.90
2018-08-10T08:58:17.785Z,37.58
2018-08-10T09:00:47.980Z,38.04
2018-08-10T09:03:29.850Z,39.62
2018-08-10T09:06:00.848Z,39.16
2018-08-10T09:08:32.024Z,38.23
2018-08-10T09:11:03.820Z,37.08
2018-08-10T09:14:44.467Z,36.84
2018-08-10T09:17:15.243Z,36.87
2018-08-10T09:19:45.465Z,37.79
2018-08-10T09:22:15.773Z,35.96
2018-08-10T09:24:46.776Z,35.68
2018-08-10T09:27:17.431Z,36.18
2018-08-10T09:29:48.519Z,36.42
2018-08-10T09:32:18.818Z,36.09
2018-08-10T09:34:48.989Z,34.50
2018-08-10T09:37:19.232Z,34.33
2018-08-10T09:39:49.470Z,33.47
2018-08-10T09:42:20.406Z,30.53
2018-08-10T09:44:50.540Z,31.15
2018-08-10T09:47:21.041Z,31.13
2018-08-10T09:49:51.996Z,32.80
2018-08-10T09:52:22.189Z,32.55
2018-08-10T09:57:05.421Z,32.70
2018-08-10T09:59:35.573Z,34.15
2018-08-10T10:02:08.991Z,35.11
2018-08-10T10:04:40.245Z,35.57
2018-08-10T10:07:10.585Z,34.26
2018-08-10T10:09:40.891Z,36.38
2018-08-10T10:12:11.751Z,35.03
2018-08-10T10:14:42.047Z,34.12
2018-08-10T10:17:15.421Z,33.71
2018-08-10T10:19:45.663Z,33.10
2018-08-10T10:22:15.923Z,32.70
2018-08-10T10:24:46.350Z,31.17
2018-08-10T10:27:16.531Z,29.93
2018-08-10T10:29:47.476Z,30.19
2018-08-10T10:32:18.238Z,32.59
2018-08-10T10:34:49.292Z,32.64
2018-08-10T10:37:20.663Z,31.38
2018-08-10T10:39:51.027Z,32.76
2018-08-10T10:42:22.294Z,32.47
2018-08-10T10:47:35.137Z,32.42
2018-08-10T10:50:10.691Z,31.58
2018-08-10T10:52:42.831Z,31.36
2018-08-10T10:55:13.379Z,30.50
2018-08-10T10:57:45.129Z,31.99
2018-08-10T11:00:17.125Z,32.01
2018-08-10T11:02:49.753Z,30.11
2018-08-10T11:05:26.049Z,29.03
2018-08-10T11:07:57.338Z,30.48
2018-08-10T11:10:28.165Z,29.03
2018-08-10T11:12:58.720Z,27.25
2018-08-10T11:15:29.011Z,27.11
2018-08-10T11:17:59.232Z,24.02
2018-08-10T11:20:29.564Z,25.05
2018-08-10T11:22:59.813Z,24.83
2018-08-10T11:25:30.178Z,21.55
2018-08-10T11:28:01.038Z,22.11
2018-08-10T11:30:31.902Z,23.38
2018-08-10T11:33:02.292Z,20.95
2018-08-10T11:35:35.428Z,24.87
2018-08-10T11:38:05.630Z,24.40
2018-08-10T11:40:35.811Z,23.27
2018-08-10T11:43:06.056Z,21.79
2018-08-10T11:45:36.269Z,22.33
2018-08-10T11:48:06.526Z,20.92
2018-08-10T11:50:36.895Z,18.60
2018-08-10T11:53:08.713Z,18.50
2018-08-10T11:55:44.686Z,20.64
2018-08-10T11:58:15.413Z,18.71
2018-08-10T12:00:45.706Z,19.40
2018-08-10T12:03:17.225Z,18.54
2018-08-10T12:05:51.632Z,20.88
2018-08-10T12:08:22.647Z,18.56
2018-08-10T12:10:52.956Z,18.92
2018-08-10T12:13:25.868Z,19.26
2018-08-10T12:15:57.346Z,19.84
2018-08-10T12:18:27.632Z,22.26
2018-08-10T12:20:58.457Z,21.77
2018-08-10T12:23:28.893Z,21.75
2018-08-10T12:25:59.155Z,22.94
2018-08-10T12:28:29.421Z,25.06
2018-08-10T12:31:00.269Z,24.56
2018-08-10T12:33:30.993Z,23.93
2018-08-10T12:36:01.737Z,23.98
2018-08-10T12:38:32.083Z,24.97
2018-08-10T12:41:02.272Z,25.49
2018-08-10T12:43:33.140Z,23.71
2018-08-10T12:46:06.012Z,23.22
2018-08-10T12:48:40.275Z,21.71
2018-08-10T12:51:10.577Z,21.18
2018-08-10T12:53:42.758Z,21.09
2018-08-10T12:56:12.989Z,23.85
2018-08-10T12:58:44.271Z,24.97
2018-08-10T13:01:14.621Z,25.00
2018-08-10T13:03:48.129Z,26.38
2018-08-10T13:06:23.997Z,26.04
2018-08-10T13:08:55.559Z,26.39
2018-08-10T13:11:25.986Z,26.69
2018-08-10T13:13:56.361Z,27.48
2018-08-10T13:16:27.537Z,26.30
2018-08-10T13:19:00.327Z,25.83
2018-08-10T13:21:31.621Z,24.97
2018-08-10T13:24:02.222Z,25.31
2018-08-10T13:26:34.019Z,25.47
2018-08-10T13:29:05.335Z,25.70
2018-08-10T13:31:35.803Z,25.89
2018-08-10T13:34:07.526Z,22.09
2018-08-10T13:36:38.007Z,21.97
2018-08-10T13:39:10.901Z,19.37
2018-08-10T13:41:43.337Z,20.02
2018-08-10T13:44:13.828Z,19.76
2018-08-10T13:46:44.321Z,20.66
2018-08-10T13:49:15.885Z,17.36
2018-08-10T13:51:46.073Z,18.27
2018-08-10T13:54:16.309Z,18.34
2018-08-10T13:56:46.519Z,18.17
2018-08-10T13:59:16.797Z,20.54
2018-08-10T14:01:47.821Z,19.65
2018-08-10T14:04:18.865Z,21.46
2018-08-10T14:06:49.021Z,21.10
2018-08-10T14:09:21.385Z,20.70
2018-08-10T14:11:51.675Z,22.36
2018-08-10T14:14:21.839Z,21.79
2018-08-10T14:17:01.124Z,20.63
2018-08-10T14:19:33.157Z,19.07
2018-08-10T14:22:03.373Z,19.33
2018-08-10T14:24:34.077Z,19.17
2018-08-10T14:27:04.295Z,18.40
2018-08-10T14:29:35.097Z,18.68
2018-08-10T14:32:06.161Z,19.22
2018-08-10T14:34:36.525Z,19.66
2018-08-10T14:37:06.697Z,20.43
2018-08-10T14:39:37.847Z,21.27
2018-08-10T14:42:08.165Z,23.79
2018-08-10T14:44:39.838Z,25.51
2018-08-10T14:47:13.622Z,24.85
2018-08-10T14:49:44.288Z,25.13
2018-08-10T14:52:15.876Z,24.94
2018-08-10T14:54:46.157Z,23.00
2018-08-10T14:57:16.378Z,21.60
2018-08-10T14:59:47.769Z,21.54
2018-08-10T15:02:19.402Z,20.47
2018-08-10T15:04:49.742Z,19.04
2018-08-10T15:07:20.692Z,20.24
2018-08-10T15:09:53.876Z,22.69
2018-08-10T15:12:25.305Z,22.59
2018-08-10T15:14:55.232Z,23.46
2018-08-10T15:17:26.873Z,24.47
2018-08-10T15:19:57.133Z,25.91
2018-08-10T15:22:29.118Z,26.24
2018-08-10T15:24:59.828Z,27.45
2018-08-10T15:27:29.984Z,25.60
2018-08-10T15:30:00.077Z,25.92
2018-08-10T15:32:30.373Z,26.61
2018-08-10T15:35:01.652Z,26.22
2018-08-10T15:37:31.954Z,25.66
2018-08-10T15:40:02.569Z,26.26
2018-08-10T15:42:33.627Z,26.22
2018-08-10T15:45:05.826Z,26.28
2018-08-10T15:47:37.361Z,26.34
2018-08-10T15:50:08.618Z,26.73
2018-08-10T15:52:40.350Z,26.00
2018-08-10T15:55:11.015Z,27.24
2018-08-10T15:57:44.036Z,25.33
2018-08-10T16:00:25.297Z,24.11
2018-08-10T16:02:55.415Z,23.06
2018-08-10T16:05:25.858Z,23.08
2018-08-10T16:07:56.180Z,23.63
2018-08-10T16:10:32.604Z,22.86
2018-08-10T16:13:05.774Z,23.63
2018-08-10T16:15:36.088Z,23.02
2018-08-10T16:18:16.301Z,24.82
2018-08-10T16:20:52.993Z,26.28
2018-08-10T16:23:23.591Z,27.22
2018-08-10T16:25:55.066Z,26.72
2018-08-10T16:28:27.151Z,25.37
2018-08-10T16:30:57.426Z,25.61
2018-08-10T16:33:28.525Z,25.36
2018-08-10T16:35:58.804Z,24.48
2018-08-10T16:38:29.278Z,24.30
2018-08-10T16:41:00.019Z,24.96
2018-08-10T16:43:30.583Z,25.42
2018-08-10T16:46:02.098Z,24.01
2018-08-10T16:48:33.053Z,24.88
2018-08-10T16:51:04.894Z,24.34
2018-08-10T16:53:35.150Z,24.66
2018-08-10T16:56:06.601Z,23.42
2018-08-10T16:58:39.340Z,22.96
2018-08-10T17:01:10.258Z,23.66
2018-08-10T17:03:41.160Z,23.73
2018-08-10T17:06:11.452Z,23.67
2018-08-10T17:08:43.357Z,23.42
2018-08-10T17:11:14.374Z,22.04
2018-08-10T17:13:44.664Z,21.87
2018-08-10T17:16:15.015Z,23.82
2018-08-10T17:18:46.301Z,25.58
2018-08-10T17:21:16.527Z,26.04
2018-08-10T17:23:47.621Z,27.46
2018-08-10T17:26:19.751Z,28.35
2018-08-10T17:28:51.254Z,28.30
2018-08-10T17:31:23.136Z,28.72
2018-08-10T17:33:53.457Z,29.16
2018-08-10T17:36:34.208Z,29.24
2018-08-10T17:39:07.994Z,29.81
2018-08-10T17:41:42.849Z,29.06
2018-08-10T17:44:14.906Z,29.91
2018-08-10T17:46:45.168Z,29.43
2018-08-10T17:49:15.883Z,30.59
2018-08-10T17:51:47.997Z,30.32
2018-08-10T17:57:00.220Z,29.37
2018-08-10T17:59:30.841Z,30.84
2018-08-10T18:02:02.885Z,30.93
2018-08-10T18:04:33.965Z,30.21
2018-08-10T18:07:04.246Z,31.48
2018-08-10T18:09:34.715Z,31.63
2018-08-10T18:12:06.754Z,30.80
2018-08-10T18:14:39.278Z,31.07
2018-08-10T18:17:16.377Z,31.44
2018-08-10T18:19:47.116Z,31.83
2018-08-10T18:22:18.804Z,32.42
2018-08-10T18:24:50.737Z,33.07
2018-08-10T18:27:22.215Z,32.49
2018-08-10T18:29:57.419Z,32.80
2018-08-10T18:32:31.530Z,33.86
2018-08-10T18:35:01.675Z,33.61
2018-08-10T18:37:32.508Z,34.23
2018-08-10T18:40:03.640Z,34.57
2018-08-10T18:42:34.043Z,34.19
2018-08-10T18:45:06.830Z,34.33
2018-08-10T18:47:37.686Z,34.47
2018-08-10T18:50:09.518Z,34.63
2018-08-10T18:52:40.573Z,35.44
2018-08-10T18:55:15.813Z,35.78
2018-08-10T18:57:46.157Z,35.68
2018-08-10T19:00:22.053Z,35.11
2018-08-10T19:02:53.625Z,36.17
2018-08-10T19:05:23.936Z,36.14
2018-08-10T19:07:54.149Z,36.21
2018-08-10T19:10:28.345Z,40.73
2018-08-10T19:12:58.731Z,42.87
2018-08-10T19:15:31.194Z,43.86
2018-08-10T19:18:02.532Z,44.38
2018-08-10T19:20:35.932Z,45.37
2018-08-10T19:23:07.495Z,46.29
2018-08-10T19:25:38.240Z,47.32
2018-08-10T19:28:12.323Z,46.65
2018-08-10T19:30:42.793Z,47.43
2018-08-10T19:33:13.957Z,47.55
2018-08-10T19:35:44.502Z,48.47
2018-08-10T19:38:15.944Z,50.33
2018-08-10T19:40:47.789Z,49.92
2018-08-10T19:43:18.059Z,50.71
2018-08-10T19:45:49.643Z,51.81
2018-08-10T19:48:21.092Z,52.75
2018-08-10T19:50:54.636Z,53.39
2018-08-10T19:53:25.036Z,53.51
2018-08-10T19:55:57.679Z,52.97
2018-08-10T19:58:28.989Z,54.26
2018-08-10T20:00:59.801Z,53.90
2018-08-10T20:03:31.585Z,54.57
2018-08-10T20:06:04.187Z,55.46
2018-08-10T20:08:36.536Z,55.36
2018-08-10T20:11:07.143Z,55.61
2018-08-10T20:13:39.458Z,56.31
2018-08-10T20:16:11.124Z,56.48
2018-08-10T20:18:41.523Z,57.02
2018-08-10T20:21:12.297Z,57.61
2018-08-10T20:23:43.453Z,57.19
2018-08-10T20:26:13.626Z,56.79
2018-08-10T20:28:46.085Z,56.83
2018-08-10T20:31:16.986Z,57.04
2018-08-10T20:33:50.210Z,57.24
2018-08-10T20:36:21.068Z,58.15
2018-08-10T20:38:52.162Z,57.84
2018-08-10T20:41:23.948Z,57.53
2018-08-10T20:43:56.273Z,58.37
2018-08-10T20:46:27.894Z,57.88
2018-08-10T20:48:59.322Z,59.12
2018-08-10T20:51:29.853Z,59.33
2018-08-10T20:54:00.548Z,58.95
2018-08-10T20:56:30.952Z,59.88
2018-08-10T20:59:01.995Z,59.83
2018-08-10T21:01:35.811Z,59.88
2018-08-10T21:04:09.112Z,59.82
2018-08-10T21:06:41.996Z,60.20
2018-08-10T21:09:13.692Z,60.33
2018-08-10T21:11:46.177Z,61.68
2018-08-10T21:14:17.512Z,60.60
2018-08-10T21:16:49.531Z,61.57
2018-08-10T21:19:20.142Z,60.89
2018-08-10T21:21:52.685Z,61.62
2018-08-10T21:24:25.015Z,61.65
2018-08-10T21:26:56.077Z,61.21
2018-08-10T21:29:27.567Z,61.43
2018-08-10T21:32:00.931Z,61.38
2018-08-10T21:34:33.539Z,61.87
2018-08-10T21:37:04.861Z,62.09
2018-08-10T21:39:35.586Z,62.03
2018-08-10T21:42:07.185Z,62.35
2018-08-10T21:44:39.332Z,62.89
2018-08-10T21:47:14.940Z,63.02
2018-08-10T21:49:46.540Z,63.58
2018-08-10T21:52:17.751Z,63.98
2018-08-10T21:54:48.066Z,64.69
2018-08-10T21:57:18.707Z,64.87
2018-08-10T21:59:49.713Z,65.01
2018-08-10T22:02:20.840Z,65.33
2018-08-10T22:04:50.885Z,64.63
2018-08-10T22:07:21.092Z,65.43
2018-08-10T22:09:52.243Z,66.09
2018-08-10T22:12:22.422Z,66.17
2018-08-10T22:14:59.386Z,66.13
2018-08-10T22:18:38.198Z,66.58
2018-08-10T22:21:10.023Z,66.94
2018-08-10T22:26:38.881Z,66.40
2018-08-10T22:29:10.472Z,66.77
2018-08-10T22:31:46.469Z,67.09
2018-08-10T22:34:17.095Z,67.73
2018-08-10T22:36:47.868Z,68.29
2018-08-10T22:39:18.626Z,68.39
2018-08-10T22:41:50.671Z,69.10
2018-08-10T22:44:21.463Z,68.93
2018-08-10T22:46:52.055Z,69.97
2018-08-10T22:49:23.321Z,69.67
2018-08-10T22:51:54.849Z,69.67
2018-08-10T22:54:25.555Z,70.20
2018-08-10T22:56:56.251Z,70.60
2018-08-10T22:59:26.646Z,69.88
2018-08-10T23:01:57.306Z,70.59
2018-08-10T23:04:31.615Z,70.89
2018-08-10T23:07:02.454Z,70.87
2018-08-10T23:09:32.604Z,71.24
2018-08-10T23:12:03.662Z,71.50
2018-08-10T23:14:34.773Z,71.54
2018-08-10T23:17:05.531Z,71.31
2018-08-10T23:19:35.847Z,72.95
2018-08-10T23:22:05.882Z,72.89
2018-08-10T23:24:36.067Z,72.57
2018-08-10T23:27:07.625Z,73.05
2018-08-10T23:29:38.379Z,72.84
2018-08-10T23:32:08.562Z,73.04
2018-08-10T23:34:39.696Z,72.90
2018-08-10T23:37:11.046Z,72.57
2018-08-10T23:39:42.764Z,72.91
2018-08-10T23:42:14.213Z,72.57
2018-08-10T23:44:45.289Z,73.10
2018-08-10T23:47:15.514Z,73.56
2018-08-10T23:49:45.907Z,73.64
2018-08-10T23:52:15.986Z,73.82
2018-08-10T23:54:46.128Z,74.78
2018-08-10T23:57:16.268Z,74.98
2018-08-10T23:59:46.336Z,74.63
